sensor_id;sensor_type;location;lat;lon;timestamp;temperature;humidity
9437;DHT22;4757;59.334;18.034;2023-08-21T00:00:57;17.30;99.90
9437;DHT22;4757;59.334;18.034;2023-08-21T00:03:24;17.30;99.90
9437;DHT22;4757;59.334;18.034;2023-08-21T00:05:52;17.30;99.90
9437;DHT22;4757;59.334;18.034;2023-08-21T00:08:19;17.30;99.90
9437;DHT22;4757;59.334;18.034;2023-08-21T00:10:46;17.30;99.90
9437;DHT22;4757;59.334;18.034;2023-08-21T00:13:14;17.30;99.90
9437;DHT22;4757;59.334;18.034;2023-08-21T00:15:41;17.30;99.90
9437;DHT22;4757;59.334;18.034;2023-08-21T00:18:08;17.20;99.90
9437;DHT22;4757;59.334;18.034;2023-08-21T00:20:36;17.20;99.90
9437;DHT22;4757;59.334;18.034;2023-08-21T00:23:03;17.20;99.90
9437;DHT22;4757;59.334;18.034;2023-08-21T00:25:30;17.20;99.90
9437;DHT22;4757;59.334;18.034;2023-08-21T00:27:57;17.20;99.90
9437;DHT22;4757;59.334;18.034;2023-08-21T00:30:25;17.20;99.90
9437;DHT22;4757;59.334;18.034;2023-08-21T00:32:52;17.20;99.90
9437;DHT22;4757;59.334;18.034;2023-08-21T00:35:19;17.20;99.90
9437;DHT22;4757;59.334;18.034;2023-08-21T00:37:46;17.20;99.90
9437;DHT22;4757;59.334;18.034;2023-08-21T00:40:13;17.20;99.90
9437;DHT22;4757;59.334;18.034;2023-08-21T00:42:41;17.20;99.90
9437;DHT22;4757;59.334;18.034;2023-08-21T00:45:08;17.20;99.90
9437;DHT22;4757;59.334;18.034;2023-08-21T00:47:35;17.20;99.90
9437;DHT22;4757;59.334;18.034;2023-08-21T00:50:03;17.20;99.90
9437;DHT22;4757;59.334;18.034;2023-08-21T00:52:38;17.20;99.90
9437;DHT22;4757;59.334;18.034;2023-08-21T00:55:07;17.20;99.90
9437;DHT22;4757;59.334;18.034;2023-08-21T00:57:36;17.20;99.90
9437;DHT22;4757;59.334;18.034;2023-08-21T01:00:04;17.20;99.90
9437;DHT22;4757;59.334;18.034;2023-08-21T01:02:32;17.20;99.90
9437;DHT22;4757;59.334;18.034;2023-08-21T01:04:59;17.20;99.90
9437;DHT22;4757;59.334;18.034;2023-08-21T01:07:27;17.20;99.90
9437;DHT22;4757;59.334;18.034;2023-08-21T01:10:04;17.20;99.90
9437;DHT22;4757;59.334;18.034;2023-08-21T01:12:37;17.20;99.90
9437;DHT22;4757;59.334;18.034;2023-08-21T01:15:08;17.20;99.90
9437;DHT22;4757;59.334;18.034;2023-08-21T01:17:39;17.20;99.90
9437;DHT22;4757;59.334;18.034;2023-08-21T01:20:07;17.20;99.90
9437;DHT22;4757;59.334;18.034;2023-08-21T01:22:41;17.20;99.90
9437;DHT22;4757;59.334;18.034;2023-08-21T01:25:13;17.20;99.90
9437;DHT22;4757;59.334;18.034;2023-08-21T01:27:50;17.10;99.90
9437;DHT22;4757;59.334;18.034;2023-08-21T01:30:17;17.20;99.90
9437;DHT22;4757;59.334;18.034;2023-08-21T01:33:05;17.20;99.90
9437;DHT22;4757;59.334;18.034;2023-08-21T01:35:34;17.20;99.90
9437;DHT22;4757;59.334;18.034;2023-08-21T01:38:05;17.20;99.90
9437;DHT22;4757;59.334;18.034;2023-08-21T01:40:33;17.00;99.90
9437;DHT22;4757;59.334;18.034;2023-08-21T01:43:00;17.00;99.90
9437;DHT22;4757;59.334;18.034;2023-08-21T01:45:27;17.10;99.90
9437;DHT22;4757;59.334;18.034;2023-08-21T01:47:55;17.10;99.90
9437;DHT22;4757;59.334;18.034;2023-08-21T01:50:22;17.10;99.90
9437;DHT22;4757;59.334;18.034;2023-08-21T01:52:49;17.10;99.90
9437;DHT22;4757;59.334;18.034;2023-08-21T01:55:16;17.10;99.90
9437;DHT22;4757;59.334;18.034;2023-08-21T01:57:43;17.10;99.90
9437;DHT22;4757;59.334;18.034;2023-08-21T02:00:11;17.10;99.90
9437;DHT22;4757;59.334;18.034;2023-08-21T02:02:39;17.10;99.90
9437;DHT22;4757;59.334;18.034;2023-08-21T02:05:07;17.10;99.90
9437;DHT22;4757;59.334;18.034;2023-08-21T02:07:34;17.10;99.90
9437;DHT22;4757;59.334;18.034;2023-08-21T02:10:01;17.10;99.90
9437;DHT22;4757;59.334;18.034;2023-08-21T02:12:31;17.10;99.90
9437;DHT22;4757;59.334;18.034;2023-08-21T02:14:59;17.20;99.90
9437;DHT22;4757;59.334;18.034;2023-08-21T02:17:26;17.20;99.90
9437;DHT22;4757;59.334;18.034;2023-08-21T02:19:53;17.10;99.90
9437;DHT22;4757;59.334;18.034;2023-08-21T02:22:21;17.10;99.90
9437;DHT22;4757;59.334;18.034;2023-08-21T02:24:48;17.20;99.90
9437;DHT22;4757;59.334;18.034;2023-08-21T02:27:15;17.10;99.90
9437;DHT22;4757;59.334;18.034;2023-08-21T02:29:42;17.10;99.90
9437;DHT22;4757;59.334;18.034;2023-08-21T02:32:09;17.10;99.90
9437;DHT22;4757;59.334;18.034;2023-08-21T02:34:36;17.10;99.90
9437;DHT22;4757;59.334;18.034;2023-08-21T02:37:03;17.20;99.90
9437;DHT22;4757;59.334;18.034;2023-08-21T02:39:31;17.10;99.90
9437;DHT22;4757;59.334;18.034;2023-08-21T02:41:59;17.10;99.90
9437;DHT22;4757;59.334;18.034;2023-08-21T02:44:26;17.10;99.90
9437;DHT22;4757;59.334;18.034;2023-08-21T02:46:53;17.10;99.90
9437;DHT22;4757;59.334;18.034;2023-08-21T02:49:20;17.10;99.90
9437;DHT22;4757;59.334;18.034;2023-08-21T02:51:47;17.10;99.90
9437;DHT22;4757;59.334;18.034;2023-08-21T02:54:14;17.10;99.90
9437;DHT22;4757;59.334;18.034;2023-08-21T02:56:41;17.10;99.90
9437;DHT22;4757;59.334;18.034;2023-08-21T02:59:08;17.10;99.90
9437;DHT22;4757;59.334;18.034;2023-08-21T03:01:36;17.10;99.90
9437;DHT22;4757;59.334;18.034;2023-08-21T03:04:03;17.10;99.90
9437;DHT22;4757;59.334;18.034;2023-08-21T03:06:30;17.10;99.90
9437;DHT22;4757;59.334;18.034;2023-08-21T03:08:57;17.10;99.90
9437;DHT22;4757;59.334;18.034;2023-08-21T03:11:24;17.10;99.90
9437;DHT22;4757;59.334;18.034;2023-08-21T03:13:51;17.10;99.90
9437;DHT22;4757;59.334;18.034;2023-08-21T03:16:18;17.10;99.90
9437;DHT22;4757;59.334;18.034;2023-08-21T03:18:59;17.10;99.90
9437;DHT22;4757;59.334;18.034;2023-08-21T03:21:27;17.10;99.90
9437;DHT22;4757;59.334;18.034;2023-08-21T03:23:56;17.20;99.90
9437;DHT22;4757;59.334;18.034;2023-08-21T03:26:25;17.20;99.90
9437;DHT22;4757;59.334;18.034;2023-08-21T03:28:52;17.20;99.90
9437;DHT22;4757;59.334;18.034;2023-08-21T03:31:20;17.10;99.90
9437;DHT22;4757;59.334;18.034;2023-08-21T03:33:49;17.10;99.90
9437;DHT22;4757;59.334;18.034;2023-08-21T03:36:17;17.10;99.90
9437;DHT22;4757;59.334;18.034;2023-08-21T03:38:47;17.20;99.90
9437;DHT22;4757;59.334;18.034;2023-08-21T03:41:15;17.20;99.90
9437;DHT22;4757;59.334;18.034;2023-08-21T03:43:42;17.20;99.90
9437;DHT22;4757;59.334;18.034;2023-08-21T03:46:09;17.20;99.90
9437;DHT22;4757;59.334;18.034;2023-08-21T03:48:36;17.20;99.90
9437;DHT22;4757;59.334;18.034;2023-08-21T03:51:04;17.20;99.90
9437;DHT22;4757;59.334;18.034;2023-08-21T03:53:31;17.20;99.90
9437;DHT22;4757;59.334;18.034;2023-08-21T03:55:58;17.20;99.90
9437;DHT22;4757;59.334;18.034;2023-08-21T03:58:25;17.20;99.90
9437;DHT22;4757;59.334;18.034;2023-08-21T04:00:53;17.20;99.90
9437;DHT22;4757;59.334;18.034;2023-08-21T04:03:21;17.20;99.90
9437;DHT22;4757;59.334;18.034;2023-08-21T04:05:48;17.20;99.90
9437;DHT22;4757;59.334;18.034;2023-08-21T04:08:15;17.20;99.90
9437;DHT22;4757;59.334;18.034;2023-08-21T04:10:42;17.20;99.90
9437;DHT22;4757;59.334;18.034;2023-08-21T04:13:10;17.20;99.90
9437;DHT22;4757;59.334;18.034;2023-08-21T04:15:37;17.20;99.90
9437;DHT22;4757;59.334;18.034;2023-08-21T04:18:04;17.20;99.90
9437;DHT22;4757;59.334;18.034;2023-08-21T04:20:32;17.20;99.90
9437;DHT22;4757;59.334;18.034;2023-08-21T04:23:07;17.30;99.90
9437;DHT22;4757;59.334;18.034;2023-08-21T04:25:47;17.30;99.90
9437;DHT22;4757;59.334;18.034;2023-08-21T04:28:14;17.30;99.90
9437;DHT22;4757;59.334;18.034;2023-08-21T04:30:42;17.30;99.90
9437;DHT22;4757;59.334;18.034;2023-08-21T04:33:09;17.30;99.90
9437;DHT22;4757;59.334;18.034;2023-08-21T04:35:40;17.30;99.90
9437;DHT22;4757;59.334;18.034;2023-08-21T04:38:07;17.30;99.90
9437;DHT22;4757;59.334;18.034;2023-08-21T04:40:34;17.20;99.90
9437;DHT22;4757;59.334;18.034;2023-08-21T04:43:01;17.30;99.90
9437;DHT22;4757;59.334;18.034;2023-08-21T04:45:28;17.30;99.90
9437;DHT22;4757;59.334;18.034;2023-08-21T04:47:55;17.30;99.90
9437;DHT22;4757;59.334;18.034;2023-08-21T04:50:24;17.30;99.90
9437;DHT22;4757;59.334;18.034;2023-08-21T04:52:51;17.30;99.90
9437;DHT22;4757;59.334;18.034;2023-08-21T04:55:18;17.30;99.90
9437;DHT22;4757;59.334;18.034;2023-08-21T04:57:46;17.30;99.90
9437;DHT22;4757;59.334;18.034;2023-08-21T05:00:13;17.30;99.90
9437;DHT22;4757;59.334;18.034;2023-08-21T05:02:42;17.30;99.90
9437;DHT22;4757;59.334;18.034;2023-08-21T05:05:09;17.20;99.90
9437;DHT22;4757;59.334;18.034;2023-08-21T05:07:37;17.30;99.90
9437;DHT22;4757;59.334;18.034;2023-08-21T05:10:04;17.30;99.90
9437;DHT22;4757;59.334;18.034;2023-08-21T05:12:35;17.30;99.90
9437;DHT22;4757;59.334;18.034;2023-08-21T05:15:03;17.30;99.90
9437;DHT22;4757;59.334;18.034;2023-08-21T05:17:30;17.30;99.90
9437;DHT22;4757;59.334;18.034;2023-08-21T05:19:57;17.30;99.90
9437;DHT22;4757;59.334;18.034;2023-08-21T05:22:25;17.20;99.90
9437;DHT22;4757;59.334;18.034;2023-08-21T05:24:52;17.20;99.90
9437;DHT22;4757;59.334;18.034;2023-08-21T05:27:19;17.20;99.90
9437;DHT22;4757;59.334;18.034;2023-08-21T05:29:47;17.10;99.90
9437;DHT22;4757;59.334;18.034;2023-08-21T05:32:16;17.20;99.90
9437;DHT22;4757;59.334;18.034;2023-08-21T05:34:43;17.20;99.90
9437;DHT22;4757;59.334;18.034;2023-08-21T05:37:11;17.30;99.90
9437;DHT22;4757;59.334;18.034;2023-08-21T05:39:39;17.40;99.90
9437;DHT22;4757;59.334;18.034;2023-08-21T05:42:08;17.40;99.90
9437;DHT22;4757;59.334;18.034;2023-08-21T05:44:36;17.40;99.90
9437;DHT22;4757;59.334;18.034;2023-08-21T05:47:03;17.50;99.90
9437;DHT22;4757;59.334;18.034;2023-08-21T05:49:33;17.50;99.90
9437;DHT22;4757;59.334;18.034;2023-08-21T05:52:00;17.60;99.90
9437;DHT22;4757;59.334;18.034;2023-08-21T05:54:27;17.60;99.90
9437;DHT22;4757;59.334;18.034;2023-08-21T05:56:55;17.70;99.90
9437;DHT22;4757;59.334;18.034;2023-08-21T05:59:34;17.70;99.90
9437;DHT22;4757;59.334;18.034;2023-08-21T06:02:02;17.90;99.90
9437;DHT22;4757;59.334;18.034;2023-08-21T06:04:42;17.90;99.90
9437;DHT22;4757;59.334;18.034;2023-08-21T06:07:10;18.00;99.90
9437;DHT22;4757;59.334;18.034;2023-08-21T06:09:37;18.10;99.90
9437;DHT22;4757;59.334;18.034;2023-08-21T06:12:07;18.20;99.90
9437;DHT22;4757;59.334;18.034;2023-08-21T06:14:35;18.30;99.90
9437;DHT22;4757;59.334;18.034;2023-08-21T06:17:03;18.30;99.90
9437;DHT22;4757;59.334;18.034;2023-08-21T06:19:31;18.40;99.90
9437;DHT22;4757;59.334;18.034;2023-08-21T06:21:58;18.40;99.90
9437;DHT22;4757;59.334;18.034;2023-08-21T06:24:25;18.60;99.90
9437;DHT22;4757;59.334;18.034;2023-08-21T06:26:52;18.70;99.90
9437;DHT22;4757;59.334;18.034;2023-08-21T06:29:20;18.90;99.90
9437;DHT22;4757;59.334;18.034;2023-08-21T06:31:47;19.00;99.90
9437;DHT22;4757;59.334;18.034;2023-08-21T06:34:14;18.80;99.90
9437;DHT22;4757;59.334;18.034;2023-08-21T06:36:41;18.80;99.90
9437;DHT22;4757;59.334;18.034;2023-08-21T06:39:09;18.80;99.90
9437;DHT22;4757;59.334;18.034;2023-08-21T06:41:36;18.90;99.90
9437;DHT22;4757;59.334;18.034;2023-08-21T06:44:03;18.80;99.90
9437;DHT22;4757;59.334;18.034;2023-08-21T06:46:30;18.70;99.90
9437;DHT22;4757;59.334;18.034;2023-08-21T06:49:00;18.60;99.90
9437;DHT22;4757;59.334;18.034;2023-08-21T06:51:27;18.60;99.90
9437;DHT22;4757;59.334;18.034;2023-08-21T06:53:54;18.70;99.90
9437;DHT22;4757;59.334;18.034;2023-08-21T06:56:22;18.60;99.90
9437;DHT22;4757;59.334;18.034;2023-08-21T06:59:01;18.60;99.90
9437;DHT22;4757;59.334;18.034;2023-08-21T07:01:32;18.50;99.90
9437;DHT22;4757;59.334;18.034;2023-08-21T07:04:00;18.60;99.90
9437;DHT22;4757;59.334;18.034;2023-08-21T07:06:28;18.60;99.90
9437;DHT22;4757;59.334;18.034;2023-08-21T07:08:56;18.80;99.90
9437;DHT22;4757;59.334;18.034;2023-08-21T07:11:23;19.10;99.90
9437;DHT22;4757;59.334;18.034;2023-08-21T07:13:50;19.10;99.90
9437;DHT22;4757;59.334;18.034;2023-08-21T07:16:17;19.40;99.90
9437;DHT22;4757;59.334;18.034;2023-08-21T07:18:44;19.60;99.90
9437;DHT22;4757;59.334;18.034;2023-08-21T07:21:12;19.70;99.90
9437;DHT22;4757;59.334;18.034;2023-08-21T07:23:58;20.00;99.90
9437;DHT22;4757;59.334;18.034;2023-08-21T07:26:26;20.20;99.90
9437;DHT22;4757;59.334;18.034;2023-08-21T07:28:53;20.00;99.90
9437;DHT22;4757;59.334;18.034;2023-08-21T07:31:20;19.70;99.90
9437;DHT22;4757;59.334;18.034;2023-08-21T07:33:48;19.40;99.90
9437;DHT22;4757;59.334;18.034;2023-08-21T07:36:15;19.20;99.90
9437;DHT22;4757;59.334;18.034;2023-08-21T07:38:45;19.00;99.90
9437;DHT22;4757;59.334;18.034;2023-08-21T07:41:13;19.00;99.90
9437;DHT22;4757;59.334;18.034;2023-08-21T07:43:41;19.00;99.90
9437;DHT22;4757;59.334;18.034;2023-08-21T07:46:10;19.00;99.90
9437;DHT22;4757;59.334;18.034;2023-08-21T07:48:40;19.10;99.90
9437;DHT22;4757;59.334;18.034;2023-08-21T07:51:07;19.20;99.90
9437;DHT22;4757;59.334;18.034;2023-08-21T07:53:34;19.30;99.90
9437;DHT22;4757;59.334;18.034;2023-08-21T07:56:02;19.20;99.90
9437;DHT22;4757;59.334;18.034;2023-08-21T07:58:31;19.30;99.90
9437;DHT22;4757;59.334;18.034;2023-08-21T08:01:01;19.40;99.90
9437;DHT22;4757;59.334;18.034;2023-08-21T08:03:29;19.30;99.90
9437;DHT22;4757;59.334;18.034;2023-08-21T08:05:56;19.40;99.90
9437;DHT22;4757;59.334;18.034;2023-08-21T08:08:24;19.30;99.90
9437;DHT22;4757;59.334;18.034;2023-08-21T08:10:52;19.50;99.90
9437;DHT22;4757;59.334;18.034;2023-08-21T08:13:19;19.50;99.90
9437;DHT22;4757;59.334;18.034;2023-08-21T08:15:46;19.70;99.90
9437;DHT22;4757;59.334;18.034;2023-08-21T08:18:14;19.70;99.90
9437;DHT22;4757;59.334;18.034;2023-08-21T08:20:41;19.90;99.90
9437;DHT22;4757;59.334;18.034;2023-08-21T08:23:09;19.80;99.90
9437;DHT22;4757;59.334;18.034;2023-08-21T08:25:36;19.30;99.90
9437;DHT22;4757;59.334;18.034;2023-08-21T08:28:03;19.30;99.90
9437;DHT22;4757;59.334;18.034;2023-08-21T08:30:31;19.40;99.90
9437;DHT22;4757;59.334;18.034;2023-08-21T08:32:58;19.30;99.90
9437;DHT22;4757;59.334;18.034;2023-08-21T08:35:25;19.50;99.90
9437;DHT22;4757;59.334;18.034;2023-08-21T08:37:53;19.60;99.90
9437;DHT22;4757;59.334;18.034;2023-08-21T08:40:22;19.80;99.90
9437;DHT22;4757;59.334;18.034;2023-08-21T08:42:50;19.70;99.90
9437;DHT22;4757;59.334;18.034;2023-08-21T08:45:30;19.70;99.90
9437;DHT22;4757;59.334;18.034;2023-08-21T08:48:00;19.50;99.90
9437;DHT22;4757;59.334;18.034;2023-08-21T08:50:31;19.40;99.90
9437;DHT22;4757;59.334;18.034;2023-08-21T08:53:09;19.30;99.90
9437;DHT22;4757;59.334;18.034;2023-08-21T08:55:43;19.30;99.90
9437;DHT22;4757;59.334;18.034;2023-08-21T08:58:13;19.20;99.90
9437;DHT22;4757;59.334;18.034;2023-08-21T09:00:40;19.10;99.90
9437;DHT22;4757;59.334;18.034;2023-08-21T09:03:10;19.30;99.90
9437;DHT22;4757;59.334;18.034;2023-08-21T09:05:47;19.30;99.90
9437;DHT22;4757;59.334;18.034;2023-08-21T09:08:15;19.90;99.90
9437;DHT22;4757;59.334;18.034;2023-08-21T09:10:43;20.60;99.90
9437;DHT22;4757;59.334;18.034;2023-08-21T09:15:40;21.40;99.90
9437;DHT22;4757;59.334;18.034;2023-08-21T09:18:11;21.50;99.90
9437;DHT22;4757;59.334;18.034;2023-08-21T09:20:39;21.00;99.90
9437;DHT22;4757;59.334;18.034;2023-08-21T09:23:07;21.30;99.90
9437;DHT22;4757;59.334;18.034;2023-08-21T09:25:35;21.40;99.90
9437;DHT22;4757;59.334;18.034;2023-08-21T09:28:09;21.20;99.90
9437;DHT22;4757;59.334;18.034;2023-08-21T09:30:52;21.00;99.90
9437;DHT22;4757;59.334;18.034;2023-08-21T09:33:33;21.30;99.90
9437;DHT22;4757;59.334;18.034;2023-08-21T09:36:01;21.20;99.90
9437;DHT22;4757;59.334;18.034;2023-08-21T09:38:30;21.10;99.90
9437;DHT22;4757;59.334;18.034;2023-08-21T09:40:57;21.40;99.90
9437;DHT22;4757;59.334;18.034;2023-08-21T09:43:24;21.50;99.90
9437;DHT22;4757;59.334;18.034;2023-08-21T09:45:53;21.40;99.90
9437;DHT22;4757;59.334;18.034;2023-08-21T09:48:24;21.00;99.90
9437;DHT22;4757;59.334;18.034;2023-08-21T09:50:51;20.70;99.90
9437;DHT22;4757;59.334;18.034;2023-08-21T09:53:22;20.80;99.90
9437;DHT22;4757;59.334;18.034;2023-08-21T09:55:53;20.80;99.90
9437;DHT22;4757;59.334;18.034;2023-08-21T09:58:20;20.60;99.90
9437;DHT22;4757;59.334;18.034;2023-08-21T10:00:49;20.90;99.90
9437;DHT22;4757;59.334;18.034;2023-08-21T10:03:21;21.50;99.90
9437;DHT22;4757;59.334;18.034;2023-08-21T10:05:50;21.80;99.90
9437;DHT22;4757;59.334;18.034;2023-08-21T10:08:24;21.40;99.90
9437;DHT22;4757;59.334;18.034;2023-08-21T10:10:52;21.20;99.90
9437;DHT22;4757;59.334;18.034;2023-08-21T10:13:19;22.10;99.90
9437;DHT22;4757;59.334;18.034;2023-08-21T10:15:47;22.30;99.90
9437;DHT22;4757;59.334;18.034;2023-08-21T10:18:32;22.60;99.90
9437;DHT22;4757;59.334;18.034;2023-08-21T10:21:16;22.70;99.90
9437;DHT22;4757;59.334;18.034;2023-08-21T10:23:48;23.00;99.90
9437;DHT22;4757;59.334;18.034;2023-08-21T10:26:16;23.30;99.90
9437;DHT22;4757;59.334;18.034;2023-08-21T10:28:52;23.40;99.90
9437;DHT22;4757;59.334;18.034;2023-08-21T10:31:36;23.70;99.90
9437;DHT22;4757;59.334;18.034;2023-08-21T10:34:05;23.30;99.90
9437;DHT22;4757;59.334;18.034;2023-08-21T10:36:39;22.30;99.90
9437;DHT22;4757;59.334;18.034;2023-08-21T10:39:25;22.70;99.90
9437;DHT22;4757;59.334;18.034;2023-08-21T10:41:57;23.00;99.90
9437;DHT22;4757;59.334;18.034;2023-08-21T10:44:49;23.00;99.90
9437;DHT22;4757;59.334;18.034;2023-08-21T10:47:21;22.60;99.90
9437;DHT22;4757;59.334;18.034;2023-08-21T10:49:54;22.40;99.90
9437;DHT22;4757;59.334;18.034;2023-08-21T10:52:44;22.40;99.90
9437;DHT22;4757;59.334;18.034;2023-08-21T10:55:15;22.50;99.90
9437;DHT22;4757;59.334;18.034;2023-08-21T10:57:49;22.80;99.90
9437;DHT22;4757;59.334;18.034;2023-08-21T11:00:19;22.80;99.90
9437;DHT22;4757;59.334;18.034;2023-08-21T11:02:49;22.40;99.90
9437;DHT22;4757;59.334;18.034;2023-08-21T11:05:17;22.00;99.90
9437;DHT22;4757;59.334;18.034;2023-08-21T11:07:46;21.70;99.90
9437;DHT22;4757;59.334;18.034;2023-08-21T11:10:18;21.60;99.90
9437;DHT22;4757;59.334;18.034;2023-08-21T11:12:54;21.90;99.90
9437;DHT22;4757;59.334;18.034;2023-08-21T11:15:30;22.40;99.90
9437;DHT22;4757;59.334;18.034;2023-08-21T11:18:01;22.60;99.90
9437;DHT22;4757;59.334;18.034;2023-08-21T11:20:32;22.20;99.90
9437;DHT22;4757;59.334;18.034;2023-08-21T11:23:04;22.30;99.90
9437;DHT22;4757;59.334;18.034;2023-08-21T11:25:35;22.40;99.90
9437;DHT22;4757;59.334;18.034;2023-08-21T11:28:05;22.20;99.90
9437;DHT22;4757;59.334;18.034;2023-08-21T11:30:32;21.50;99.90
9437;DHT22;4757;59.334;18.034;2023-08-21T11:33:11;21.60;99.90
9437;DHT22;4757;59.334;18.034;2023-08-21T11:35:40;21.70;99.90
9437;DHT22;4757;59.334;18.034;2023-08-21T11:38:20;21.70;99.90
9437;DHT22;4757;59.334;18.034;2023-08-21T11:41:14;22.00;99.90
9437;DHT22;4757;59.334;18.034;2023-08-21T11:43:42;22.30;99.90
9437;DHT22;4757;59.334;18.034;2023-08-21T11:46:22;22.70;99.90
9437;DHT22;4757;59.334;18.034;2023-08-21T11:48:52;22.90;99.90
9437;DHT22;4757;59.334;18.034;2023-08-21T11:51:19;23.10;99.90
9437;DHT22;4757;59.334;18.034;2023-08-21T11:53:47;22.40;99.90
9437;DHT22;4757;59.334;18.034;2023-08-21T11:56:18;22.30;99.90
9437;DHT22;4757;59.334;18.034;2023-08-21T11:58:49;22.50;99.90
9437;DHT22;4757;59.334;18.034;2023-08-21T12:01:21;22.50;99.90
9437;DHT22;4757;59.334;18.034;2023-08-21T12:03:48;22.30;99.90
9437;DHT22;4757;59.334;18.034;2023-08-21T12:06:24;22.10;99.90
9437;DHT22;4757;59.334;18.034;2023-08-21T12:08:53;21.80;99.90
9437;DHT22;4757;59.334;18.034;2023-08-21T12:11:21;21.80;99.90
9437;DHT22;4757;59.334;18.034;2023-08-21T12:13:50;22.30;99.90
9437;DHT22;4757;59.334;18.034;2023-08-21T12:16:18;22.80;99.90
9437;DHT22;4757;59.334;18.034;2023-08-21T12:18:46;23.30;99.90
9437;DHT22;4757;59.334;18.034;2023-08-21T12:21:13;23.60;99.90
9437;DHT22;4757;59.334;18.034;2023-08-21T12:23:40;23.90;99.90
9437;DHT22;4757;59.334;18.034;2023-08-21T12:26:08;23.50;99.90
9437;DHT22;4757;59.334;18.034;2023-08-21T12:28:49;23.20;99.90
9437;DHT22;4757;59.334;18.034;2023-08-21T12:31:18;23.70;99.90
9437;DHT22;4757;59.334;18.034;2023-08-21T12:33:46;24.20;99.90
9437;DHT22;4757;59.334;18.034;2023-08-21T12:36:13;24.40;99.90
9437;DHT22;4757;59.334;18.034;2023-08-21T12:38:42;24.60;99.90
9437;DHT22;4757;59.334;18.034;2023-08-21T12:41:11;24.30;99.90
9437;DHT22;4757;59.334;18.034;2023-08-21T12:43:41;23.90;99.90
9437;DHT22;4757;59.334;18.034;2023-08-21T12:46:22;24.40;99.90
9437;DHT22;4757;59.334;18.034;2023-08-21T12:48:51;24.50;99.90
9437;DHT22;4757;59.334;18.034;2023-08-21T12:51:18;24.30;99.90
9437;DHT22;4757;59.334;18.034;2023-08-21T12:53:46;24.50;99.90
9437;DHT22;4757;59.334;18.034;2023-08-21T12:56:17;24.10;99.90
9437;DHT22;4757;59.334;18.034;2023-08-21T12:58:56;24.20;99.90
9437;DHT22;4757;59.334;18.034;2023-08-21T13:01:37;24.60;99.90
9437;DHT22;4757;59.334;18.034;2023-08-21T13:04:12;24.20;99.90
9437;DHT22;4757;59.334;18.034;2023-08-21T13:06:40;23.90;99.90
9437;DHT22;4757;59.334;18.034;2023-08-21T13:09:08;24.40;99.90
9437;DHT22;4757;59.334;18.034;2023-08-21T13:11:35;24.10;99.90
9437;DHT22;4757;59.334;18.034;2023-08-21T13:14:02;23.50;99.90
9437;DHT22;4757;59.334;18.034;2023-08-21T13:16:30;24.00;99.90
9437;DHT22;4757;59.334;18.034;2023-08-21T13:18:57;24.10;99.90
9437;DHT22;4757;59.334;18.034;2023-08-21T13:21:24;24.10;99.90
9437;DHT22;4757;59.334;18.034;2023-08-21T13:23:54;23.80;99.90
9437;DHT22;4757;59.334;18.034;2023-08-21T13:26:21;23.10;99.90
9437;DHT22;4757;59.334;18.034;2023-08-21T13:28:49;22.90;99.90
9437;DHT22;4757;59.334;18.034;2023-08-21T13:31:16;22.60;99.90
9437;DHT22;4757;59.334;18.034;2023-08-21T13:33:47;22.30;99.90
9437;DHT22;4757;59.334;18.034;2023-08-21T13:36:17;22.60;99.90
9437;DHT22;4757;59.334;18.034;2023-08-21T13:38:46;22.70;99.90
9437;DHT22;4757;59.334;18.034;2023-08-21T13:41:13;22.80;99.90
9437;DHT22;4757;59.334;18.034;2023-08-21T13:43:41;22.90;99.90
9437;DHT22;4757;59.334;18.034;2023-08-21T13:46:12;23.10;99.90
9437;DHT22;4757;59.334;18.034;2023-08-21T13:48:39;22.30;99.90
9437;DHT22;4757;59.334;18.034;2023-08-21T13:51:06;22.40;99.90
9437;DHT22;4757;59.334;18.034;2023-08-21T13:53:33;22.70;99.90
9437;DHT22;4757;59.334;18.034;2023-08-21T13:56:00;23.00;99.90
9437;DHT22;4757;59.334;18.034;2023-08-21T13:58:28;23.00;99.90
9437;DHT22;4757;59.334;18.034;2023-08-21T14:00:55;22.70;99.90
9437;DHT22;4757;59.334;18.034;2023-08-21T14:03:24;22.80;99.90
9437;DHT22;4757;59.334;18.034;2023-08-21T14:05:51;23.00;99.90
9437;DHT22;4757;59.334;18.034;2023-08-21T14:08:19;23.10;99.90
9437;DHT22;4757;59.334;18.034;2023-08-21T14:10:46;23.30;99.90
9437;DHT22;4757;59.334;18.034;2023-08-21T14:13:13;23.00;99.90
9437;DHT22;4757;59.334;18.034;2023-08-21T14:15:40;23.30;99.90
9437;DHT22;4757;59.334;18.034;2023-08-21T14:18:07;22.90;99.90
9437;DHT22;4757;59.334;18.034;2023-08-21T14:20:35;23.00;99.90
9437;DHT22;4757;59.334;18.034;2023-08-21T14:23:02;23.00;99.90
9437;DHT22;4757;59.334;18.034;2023-08-21T14:25:29;22.80;99.90
9437;DHT22;4757;59.334;18.034;2023-08-21T14:27:57;22.50;99.90
9437;DHT22;4757;59.334;18.034;2023-08-21T14:30:25;22.40;99.90
9437;DHT22;4757;59.334;18.034;2023-08-21T14:32:53;22.00;99.90
9437;DHT22;4757;59.334;18.034;2023-08-21T14:35:20;22.00;99.90
9437;DHT22;4757;59.334;18.034;2023-08-21T14:37:48;22.40;99.90
9437;DHT22;4757;59.334;18.034;2023-08-21T14:40:15;22.40;99.90
9437;DHT22;4757;59.334;18.034;2023-08-21T14:42:42;22.70;99.90
9437;DHT22;4757;59.334;18.034;2023-08-21T14:45:10;22.70;99.90
9437;DHT22;4757;59.334;18.034;2023-08-21T14:47:51;22.90;99.90
9437;DHT22;4757;59.334;18.034;2023-08-21T14:50:19;22.90;99.90
9437;DHT22;4757;59.334;18.034;2023-08-21T14:52:46;22.90;99.90
9437;DHT22;4757;59.334;18.034;2023-08-21T14:55:28;22.40;99.90
9437;DHT22;4757;59.334;18.034;2023-08-21T14:57:55;22.40;99.90
9437;DHT22;4757;59.334;18.034;2023-08-21T15:00:22;22.20;99.90
9437;DHT22;4757;59.334;18.034;2023-08-21T15:02:50;22.30;99.90
9437;DHT22;4757;59.334;18.034;2023-08-21T15:05:17;22.20;99.90
9437;DHT22;4757;59.334;18.034;2023-08-21T15:07:44;21.90;99.90
9437;DHT22;4757;59.334;18.034;2023-08-21T15:10:11;22.10;99.90
9437;DHT22;4757;59.334;18.034;2023-08-21T15:12:38;22.20;99.90
9437;DHT22;4757;59.334;18.034;2023-08-21T15:15:06;22.40;99.90
9437;DHT22;4757;59.334;18.034;2023-08-21T15:17:33;21.90;99.90
9437;DHT22;4757;59.334;18.034;2023-08-21T15:20:00;21.90;99.90
9437;DHT22;4757;59.334;18.034;2023-08-21T15:22:33;22.00;99.90
9437;DHT22;4757;59.334;18.034;2023-08-21T15:25:00;22.20;99.90
9437;DHT22;4757;59.334;18.034;2023-08-21T15:27:27;22.00;99.90
9437;DHT22;4757;59.334;18.034;2023-08-21T15:29:55;22.20;99.90
9437;DHT22;4757;59.334;18.034;2023-08-21T15:32:22;21.90;99.90
9437;DHT22;4757;59.334;18.034;2023-08-21T15:34:49;21.80;99.90
9437;DHT22;4757;59.334;18.034;2023-08-21T15:37:16;21.90;99.90
9437;DHT22;4757;59.334;18.034;2023-08-21T15:39:43;22.00;99.90
9437;DHT22;4757;59.334;18.034;2023-08-21T15:42:10;22.00;99.90
9437;DHT22;4757;59.334;18.034;2023-08-21T15:44:37;22.00;99.90
9437;DHT22;4757;59.334;18.034;2023-08-21T15:47:06;22.00;99.90
9437;DHT22;4757;59.334;18.034;2023-08-21T15:49:53;22.20;99.90
9437;DHT22;4757;59.334;18.034;2023-08-21T15:52:20;22.20;99.90
9437;DHT22;4757;59.334;18.034;2023-08-21T15:54:48;21.80;99.90
9437;DHT22;4757;59.334;18.034;2023-08-21T15:57:18;22.00;99.90
9437;DHT22;4757;59.334;18.034;2023-08-21T15:59:46;22.00;99.90